sensor_id;sensor_type;location;lat;lon;timestamp;P1;durP1;ratioP1;P2;durP2;ratioP2
17228;SDS011;8731;50.364;8.958;2023-08-06T00:00:11;4.10;;;3.20;;
17228;SDS011;8731;50.364;8.958;2023-08-06T00:04:35;3.40;;;3.10;;
17228;SDS011;8731;50.364;8.958;2023-08-06T00:08:58;3.20;;;3.00;;
17228;SDS011;8731;50.364;8.958;2023-08-06T00:13:20;3.93;;;3.10;;
17228;SDS011;8731;50.364;8.958;2023-08-06T00:17:44;3.70;;;3.30;;
17228;SDS011;8731;50.364;8.958;2023-08-06T00:22:06;4.53;;;3.17;;
17228;SDS011;8731;50.364;8.958;2023-08-06T00:26:28;5.20;;;3.00;;
17228;SDS011;8731;50.364;8.958;2023-08-06T00:30:52;3.30;;;3.00;;
17228;SDS011;8731;50.364;8.958;2023-08-06T00:35:17;3.23;;;2.93;;
17228;SDS011;8731;50.364;8.958;2023-08-06T00:39:39;3.30;;;3.07;;
17228;SDS011;8731;50.364;8.958;2023-08-06T00:44:03;3.00;;;2.80;;
17228;SDS011;8731;50.364;8.958;2023-08-06T00:48:27;3.33;;;2.83;;
17228;SDS011;8731;50.364;8.958;2023-08-06T00:52:51;3.97;;;2.90;;
17228;SDS011;8731;50.364;8.958;2023-08-06T00:57:14;5.50;;;3.07;;
17228;SDS011;8731;50.364;8.958;2023-08-06T01:01:38;3.47;;;3.00;;
17228;SDS011;8731;50.364;8.958;2023-08-06T01:06:01;4.03;;;2.80;;
17228;SDS011;8731;50.364;8.958;2023-08-06T01:10:29;4.57;;;2.67;;
17228;SDS011;8731;50.364;8.958;2023-08-06T01:15:07;4.03;;;2.80;;
17228;SDS011;8731;50.364;8.958;2023-08-06T01:19:38;3.07;;;2.77;;
17228;SDS011;8731;50.364;8.958;2023-08-06T01:24:03;3.70;;;2.87;;
17228;SDS011;8731;50.364;8.958;2023-08-06T01:28:29;4.70;;;2.83;;
17228;SDS011;8731;50.364;8.958;2023-08-06T01:33:03;3.80;;;3.13;;
17228;SDS011;8731;50.364;8.958;2023-08-06T01:37:31;3.93;;;3.37;;
17228;SDS011;8731;50.364;8.958;2023-08-06T01:41:58;3.67;;;3.00;;
17228;SDS011;8731;50.364;8.958;2023-08-06T01:46:21;3.80;;;3.40;;
17228;SDS011;8731;50.364;8.958;2023-08-06T01:50:45;3.50;;;3.20;;
17228;SDS011;8731;50.364;8.958;2023-08-06T01:55:08;4.37;;;3.10;;
17228;SDS011;8731;50.364;8.958;2023-08-06T01:59:33;3.70;;;3.40;;
17228;SDS011;8731;50.364;8.958;2023-08-06T02:03:56;3.87;;;2.97;;
17228;SDS011;8731;50.364;8.958;2023-08-06T02:08:19;3.77;;;3.30;;
17228;SDS011;8731;50.364;8.958;2023-08-06T02:12:42;4.63;;;3.00;;
17228;SDS011;8731;50.364;8.958;2023-08-06T02:17:08;4.10;;;3.70;;
17228;SDS011;8731;50.364;8.958;2023-08-06T02:21:31;3.43;;;3.13;;
17228;SDS011;8731;50.364;8.958;2023-08-06T02:25:56;4.07;;;3.00;;
17228;SDS011;8731;50.364;8.958;2023-08-06T02:30:21;3.60;;;3.20;;
17228;SDS011;8731;50.364;8.958;2023-08-06T02:34:47;3.60;;;2.80;;
17228;SDS011;8731;50.364;8.958;2023-08-06T02:39:10;4.10;;;3.20;;
17228;SDS011;8731;50.364;8.958;2023-08-06T02:43:32;4.93;;;3.30;;
17228;SDS011;8731;50.364;8.958;2023-08-06T02:47:55;3.97;;;3.17;;
17228;SDS011;8731;50.364;8.958;2023-08-06T02:52:19;7.57;;;3.30;;
17228;SDS011;8731;50.364;8.958;2023-08-06T02:56:42;4.90;;;2.90;;
17228;SDS011;8731;50.364;8.958;2023-08-06T03:01:12;4.83;;;3.00;;
17228;SDS011;8731;50.364;8.958;2023-08-06T03:05:50;6.17;;;3.47;;
17228;SDS011;8731;50.364;8.958;2023-08-06T03:10:37;3.87;;;3.17;;
17228;SDS011;8731;50.364;8.958;2023-08-06T03:15:00;3.73;;;3.17;;
17228;SDS011;8731;50.364;8.958;2023-08-06T03:19:23;5.07;;;3.50;;
17228;SDS011;8731;50.364;8.958;2023-08-06T03:23:48;3.10;;;2.80;;
17228;SDS011;8731;50.364;8.958;2023-08-06T03:28:16;3.37;;;2.87;;
17228;SDS011;8731;50.364;8.958;2023-08-06T03:32:40;3.80;;;2.53;;
17228;SDS011;8731;50.364;8.958;2023-08-06T03:37:05;4.07;;;2.83;;
17228;SDS011;8731;50.364;8.958;2023-08-06T03:41:29;2.90;;;2.60;;
17228;SDS011;8731;50.364;8.958;2023-08-06T03:45:54;4.57;;;3.13;;
17228;SDS011;8731;50.364;8.958;2023-08-06T03:50:17;4.37;;;3.00;;
17228;SDS011;8731;50.364;8.958;2023-08-06T03:54:40;4.37;;;3.03;;
17228;SDS011;8731;50.364;8.958;2023-08-06T03:59:05;4.77;;;2.57;;
17228;SDS011;8731;50.364;8.958;2023-08-06T04:03:29;2.60;;;2.40;;
17228;SDS011;8731;50.364;8.958;2023-08-06T04:07:53;2.87;;;2.60;;
17228;SDS011;8731;50.364;8.958;2023-08-06T04:12:15;4.57;;;3.00;;
17228;SDS011;8731;50.364;8.958;2023-08-06T04:16:38;3.83;;;2.87;;
17228;SDS011;8731;50.364;8.958;2023-08-06T04:21:03;2.80;;;2.40;;
17228;SDS011;8731;50.364;8.958;2023-08-06T04:25:26;3.50;;;2.47;;
17228;SDS011;8731;50.364;8.958;2023-08-06T04:29:49;3.70;;;2.80;;
17228;SDS011;8731;50.364;8.958;2023-08-06T04:34:14;3.07;;;2.60;;
17228;SDS011;8731;50.364;8.958;2023-08-06T04:38:38;3.20;;;2.90;;
17228;SDS011;8731;50.364;8.958;2023-08-06T04:43:04;4.23;;;3.00;;
17228;SDS011;8731;50.364;8.958;2023-08-06T04:47:28;4.63;;;3.07;;
17228;SDS011;8731;50.364;8.958;2023-08-06T04:51:51;4.27;;;2.57;;
17228;SDS011;8731;50.364;8.958;2023-08-06T04:56:15;3.60;;;2.77;;
17228;SDS011;8731;50.364;8.958;2023-08-06T05:00:38;5.03;;;2.40;;
17228;SDS011;8731;50.364;8.958;2023-08-06T05:05:00;4.80;;;2.73;;
17228;SDS011;8731;50.364;8.958;2023-08-06T05:09:23;4.63;;;2.67;;
17228;SDS011;8731;50.364;8.958;2023-08-06T05:13:47;4.63;;;2.40;;
17228;SDS011;8731;50.364;8.958;2023-08-06T05:18:10;4.60;;;2.30;;
17228;SDS011;8731;50.364;8.958;2023-08-06T05:22:32;3.40;;;2.50;;
17228;SDS011;8731;50.364;8.958;2023-08-06T05:26:56;4.33;;;2.40;;
17228;SDS011;8731;50.364;8.958;2023-08-06T05:31:22;6.33;;;2.60;;
17228;SDS011;8731;50.364;8.958;2023-08-06T05:35:45;7.30;;;3.20;;
17228;SDS011;8731;50.364;8.958;2023-08-06T05:40:10;7.50;;;3.00;;
17228;SDS011;8731;50.364;8.958;2023-08-06T05:44:33;1.97;;;1.80;;
17228;SDS011;8731;50.364;8.958;2023-08-06T05:48:59;4.90;;;2.00;;
17228;SDS011;8731;50.364;8.958;2023-08-06T05:53:21;4.33;;;2.10;;
17228;SDS011;8731;50.364;8.958;2023-08-06T05:57:44;4.27;;;2.10;;
17228;SDS011;8731;50.364;8.958;2023-08-06T06:02:07;3.43;;;1.70;;
17228;SDS011;8731;50.364;8.958;2023-08-06T06:06:33;3.50;;;1.70;;
17228;SDS011;8731;50.364;8.958;2023-08-06T06:10:56;2.47;;;1.80;;
17228;SDS011;8731;50.364;8.958;2023-08-06T06:15:19;5.27;;;1.90;;
17228;SDS011;8731;50.364;8.958;2023-08-06T06:19:43;1.53;;;1.03;;
17228;SDS011;8731;50.364;8.958;2023-08-06T06:24:08;3.73;;;1.40;;
17228;SDS011;8731;50.364;8.958;2023-08-06T06:28:31;2.70;;;1.43;;
17228;SDS011;8731;50.364;8.958;2023-08-06T06:32:53;1.43;;;1.20;;
17228;SDS011;8731;50.364;8.958;2023-08-06T06:37:16;1.70;;;1.40;;
17228;SDS011;8731;50.364;8.958;2023-08-06T06:41:40;2.20;;;1.53;;
17228;SDS011;8731;50.364;8.958;2023-08-06T06:46:12;2.80;;;1.30;;
17228;SDS011;8731;50.364;8.958;2023-08-06T06:50:35;1.30;;;1.20;;
17228;SDS011;8731;50.364;8.958;2023-08-06T06:54:59;1.50;;;0.90;;
17228;SDS011;8731;50.364;8.958;2023-08-06T06:59:23;1.57;;;1.10;;
17228;SDS011;8731;50.364;8.958;2023-08-06T07:03:48;2.47;;;1.20;;
17228;SDS011;8731;50.364;8.958;2023-08-06T07:08:10;1.20;;;1.00;;
17228;SDS011;8731;50.364;8.958;2023-08-06T07:12:33;1.60;;;1.00;;
17228;SDS011;8731;50.364;8.958;2023-08-06T07:16:58;1.40;;;1.10;;
17228;SDS011;8731;50.364;8.958;2023-08-06T07:21:21;1.30;;;0.87;;
17228;SDS011;8731;50.364;8.958;2023-08-06T07:25:44;2.00;;;0.80;;
17228;SDS011;8731;50.364;8.958;2023-08-06T07:30:08;0.83;;;0.70;;
17228;SDS011;8731;50.364;8.958;2023-08-06T07:34:35;0.70;;;0.70;;
17228;SDS011;8731;50.364;8.958;2023-08-06T07:38:57;1.07;;;0.60;;
17228;SDS011;8731;50.364;8.958;2023-08-06T07:43:19;1.77;;;0.80;;
17228;SDS011;8731;50.364;8.958;2023-08-06T07:47:42;1.10;;;0.53;;
17228;SDS011;8731;50.364;8.958;2023-08-06T07:52:07;1.37;;;0.60;;
17228;SDS011;8731;50.364;8.958;2023-08-06T07:56:29;1.77;;;0.60;;
17228;SDS011;8731;50.364;8.958;2023-08-06T08:00:52;0.93;;;0.70;;
17228;SDS011;8731;50.364;8.958;2023-08-06T08:05:14;1.23;;;0.70;;
17228;SDS011;8731;50.364;8.958;2023-08-06T08:09:38;0.77;;;0.60;;
17228;SDS011;8731;50.364;8.958;2023-08-06T08:14:01;2.30;;;0.80;;
17228;SDS011;8731;50.364;8.958;2023-08-06T08:18:24;0.90;;;0.80;;
17228;SDS011;8731;50.364;8.958;2023-08-06T08:22:47;0.93;;;0.70;;
17228;SDS011;8731;50.364;8.958;2023-08-06T08:27:12;1.10;;;0.70;;
17228;SDS011;8731;50.364;8.958;2023-08-06T08:31:35;1.47;;;0.70;;
17228;SDS011;8731;50.364;8.958;2023-08-06T08:35:59;1.27;;;0.50;;
17228;SDS011;8731;50.364;8.958;2023-08-06T08:40:22;0.50;;;0.50;;
17228;SDS011;8731;50.364;8.958;2023-08-06T08:44:54;0.70;;;0.40;;
17228;SDS011;8731;50.364;8.958;2023-08-06T08:49:19;2.70;;;0.50;;
17228;SDS011;8731;50.364;8.958;2023-08-06T08:53:45;0.40;;;0.40;;
17228;SDS011;8731;50.364;8.958;2023-08-06T08:58:10;0.87;;;0.50;;
17228;SDS011;8731;50.364;8.958;2023-08-06T09:02:34;1.07;;;0.60;;
17228;SDS011;8731;50.364;8.958;2023-08-06T09:07:00;1.07;;;0.50;;
17228;SDS011;8731;50.364;8.958;2023-08-06T09:11:23;0.70;;;0.50;;
17228;SDS011;8731;50.364;8.958;2023-08-06T09:15:48;1.70;;;0.60;;
17228;SDS011;8731;50.364;8.958;2023-08-06T09:20:13;1.07;;;0.80;;
17228;SDS011;8731;50.364;8.958;2023-08-06T09:24:38;1.50;;;0.60;;
17228;SDS011;8731;50.364;8.958;2023-08-06T09:29:04;0.47;;;0.40;;
17228;SDS011;8731;50.364;8.958;2023-08-06T09:33:29;0.53;;;0.50;;
17228;SDS011;8731;50.364;8.958;2023-08-06T09:37:55;1.37;;;0.70;;
17228;SDS011;8731;50.364;8.958;2023-08-06T09:42:27;0.57;;;0.50;;
17228;SDS011;8731;50.364;8.958;2023-08-06T09:46:53;1.73;;;0.60;;
17228;SDS011;8731;50.364;8.958;2023-08-06T09:51:18;0.63;;;0.50;;
17228;SDS011;8731;50.364;8.958;2023-08-06T09:55:41;2.50;;;0.70;;
17228;SDS011;8731;50.364;8.958;2023-08-06T10:00:06;0.50;;;0.50;;
17228;SDS011;8731;50.364;8.958;2023-08-06T10:04:34;0.60;;;0.50;;
17228;SDS011;8731;50.364;8.958;2023-08-06T10:08:56;1.43;;;0.60;;
17228;SDS011;8731;50.364;8.958;2023-08-06T10:13:21;1.17;;;0.60;;
17228;SDS011;8731;50.364;8.958;2023-08-06T10:17:45;0.87;;;0.50;;
17228;SDS011;8731;50.364;8.958;2023-08-06T10:22:11;1.60;;;0.40;;
17228;SDS011;8731;50.364;8.958;2023-08-06T10:26:37;0.97;;;0.50;;
17228;SDS011;8731;50.364;8.958;2023-08-06T10:31:02;1.13;;;0.60;;
17228;SDS011;8731;50.364;8.958;2023-08-06T10:35:34;0.43;;;0.37;;
17228;SDS011;8731;50.364;8.958;2023-08-06T10:40:05;1.97;;;0.40;;
17228;SDS011;8731;50.364;8.958;2023-08-06T10:44:36;0.40;;;0.40;;
17228;SDS011;8731;50.364;8.958;2023-08-06T10:49:20;1.70;;;0.47;;
17228;SDS011;8731;50.364;8.958;2023-08-06T10:53:44;0.90;;;0.50;;
17228;SDS011;8731;50.364;8.958;2023-08-06T10:58:08;1.67;;;0.60;;
17228;SDS011;8731;50.364;8.958;2023-08-06T11:02:33;4.40;;;0.53;;
17228;SDS011;8731;50.364;8.958;2023-08-06T11:06:58;4.67;;;0.50;;
17228;SDS011;8731;50.364;8.958;2023-08-06T11:11:23;1.50;;;0.40;;
17228;SDS011;8731;50.364;8.958;2023-08-06T11:15:46;1.97;;;0.50;;
17228;SDS011;8731;50.364;8.958;2023-08-06T11:20:09;0.40;;;0.30;;
17228;SDS011;8731;50.364;8.958;2023-08-06T11:24:33;0.60;;;0.43;;
17228;SDS011;8731;50.364;8.958;2023-08-06T11:28:59;0.80;;;0.40;;
17228;SDS011;8731;50.364;8.958;2023-08-06T11:33:22;0.87;;;0.50;;
17228;SDS011;8731;50.364;8.958;2023-08-06T11:37:46;0.57;;;0.40;;
17228;SDS011;8731;50.364;8.958;2023-08-06T11:42:10;1.30;;;0.70;;
17228;SDS011;8731;50.364;8.958;2023-08-06T11:51:13;0.67;;;0.40;;
17228;SDS011;8731;50.364;8.958;2023-08-06T11:55:37;1.40;;;0.50;;
17228;SDS011;8731;50.364;8.958;2023-08-06T12:00:03;1.53;;;0.80;;
17228;SDS011;8731;50.364;8.958;2023-08-06T12:09:24;1.83;;;0.80;;
17228;SDS011;8731;50.364;8.958;2023-08-06T12:13:50;1.97;;;0.60;;
17228;SDS011;8731;50.364;8.958;2023-08-06T12:18:14;2.50;;;1.00;;
17228;SDS011;8731;50.364;8.958;2023-08-06T12:22:37;1.03;;;0.50;;
17228;SDS011;8731;50.364;8.958;2023-08-06T12:27:00;2.27;;;0.80;;
17228;SDS011;8731;50.364;8.958;2023-08-06T12:31:23;1.70;;;0.70;;
17228;SDS011;8731;50.364;8.958;2023-08-06T12:35:48;3.80;;;1.10;;
17228;SDS011;8731;50.364;8.958;2023-08-06T12:40:10;6.10;;;0.87;;
17228;SDS011;8731;50.364;8.958;2023-08-06T12:44:33;1.17;;;0.50;;
17228;SDS011;8731;50.364;8.958;2023-08-06T12:48:55;0.80;;;0.40;;
17228;SDS011;8731;50.364;8.958;2023-08-06T12:53:20;0.70;;;0.33;;
17228;SDS011;8731;50.364;8.958;2023-08-06T12:57:43;0.50;;;0.30;;
17228;SDS011;8731;50.364;8.958;2023-08-06T13:02:06;1.43;;;0.50;;
17228;SDS011;8731;50.364;8.958;2023-08-06T13:06:29;1.63;;;0.60;;
17228;SDS011;8731;50.364;8.958;2023-08-06T13:10:57;1.53;;;0.40;;
17228;SDS011;8731;50.364;8.958;2023-08-06T13:15:20;0.57;;;0.30;;
17228;SDS011;8731;50.364;8.958;2023-08-06T13:19:43;1.13;;;0.70;;
17228;SDS011;8731;50.364;8.958;2023-08-06T13:24:07;0.47;;;0.47;;
17228;SDS011;8731;50.364;8.958;2023-08-06T13:28:31;0.90;;;0.50;;
17228;SDS011;8731;50.364;8.958;2023-08-06T13:32:54;1.10;;;0.50;;
17228;SDS011;8731;50.364;8.958;2023-08-06T13:37:18;0.53;;;0.40;;
17228;SDS011;8731;50.364;8.958;2023-08-06T13:41:40;2.03;;;0.60;;
17228;SDS011;8731;50.364;8.958;2023-08-06T13:46:04;2.57;;;0.50;;
17228;SDS011;8731;50.364;8.958;2023-08-06T13:50:36;0.30;;;0.30;;
17228;SDS011;8731;50.364;8.958;2023-08-06T13:54:59;2.00;;;0.60;;
17228;SDS011;8731;50.364;8.958;2023-08-06T13:59:25;0.83;;;0.47;;
17228;SDS011;8731;50.364;8.958;2023-08-06T14:03:49;0.70;;;0.40;;
17228;SDS011;8731;50.364;8.958;2023-08-06T14:08:13;0.60;;;0.50;;
17228;SDS011;8731;50.364;8.958;2023-08-06T14:12:38;1.10;;;0.67;;
17228;SDS011;8731;50.364;8.958;2023-08-06T14:17:01;1.10;;;0.60;;
17228;SDS011;8731;50.364;8.958;2023-08-06T14:21:25;3.20;;;0.77;;
17228;SDS011;8731;50.364;8.958;2023-08-06T14:25:47;1.70;;;0.80;;
17228;SDS011;8731;50.364;8.958;2023-08-06T14:30:10;2.00;;;0.67;;
17228;SDS011;8731;50.364;8.958;2023-08-06T14:34:33;0.93;;;0.67;;
17228;SDS011;8731;50.364;8.958;2023-08-06T14:38:59;1.27;;;0.90;;
17228;SDS011;8731;50.364;8.958;2023-08-06T14:43:23;1.03;;;0.70;;
17228;SDS011;8731;50.364;8.958;2023-08-06T14:47:47;0.50;;;0.50;;
17228;SDS011;8731;50.364;8.958;2023-08-06T14:52:09;2.43;;;0.60;;
17228;SDS011;8731;50.364;8.958;2023-08-06T14:56:33;1.67;;;0.87;;
17228;SDS011;8731;50.364;8.958;2023-08-06T15:00:55;1.30;;;0.80;;
17228;SDS011;8731;50.364;8.958;2023-08-06T15:05:18;2.07;;;0.60;;
17228;SDS011;8731;50.364;8.958;2023-08-06T15:09:40;1.83;;;0.50;;
17228;SDS011;8731;50.364;8.958;2023-08-06T15:14:04;1.30;;;0.60;;
17228;SDS011;8731;50.364;8.958;2023-08-06T15:18:27;1.37;;;0.70;;
17228;SDS011;8731;50.364;8.958;2023-08-06T15:22:51;1.43;;;0.80;;
17228;SDS011;8731;50.364;8.958;2023-08-06T15:27:13;2.07;;;0.57;;
17228;SDS011;8731;50.364;8.958;2023-08-06T15:31:38;1.60;;;0.40;;
17228;SDS011;8731;50.364;8.958;2023-08-06T15:36:01;1.17;;;0.60;;
17228;SDS011;8731;50.364;8.958;2023-08-06T15:40:24;0.63;;;0.40;;
17228;SDS011;8731;50.364;8.958;2023-08-06T15:44:47;0.37;;;0.30;;
17228;SDS011;8731;50.364;8.958;2023-08-06T15:49:11;0.50;;;0.40;;
17228;SDS011;8731;50.364;8.958;2023-08-06T15:53:34;0.57;;;0.37;;
17228;SDS011;8731;50.364;8.958;2023-08-06T15:57:56;1.13;;;0.80;;
17228;SDS011;8731;50.364;8.958;2023-08-06T16:02:19;1.30;;;0.70;;
17228;SDS011;8731;50.364;8.958;2023-08-06T16:06:43;1.13;;;0.50;;
17228;SDS011;8731;50.364;8.958;2023-08-06T16:11:05;3.30;;;0.50;;
17228;SDS011;8731;50.364;8.958;2023-08-06T16:15:30;1.13;;;0.70;;
17228;SDS011;8731;50.364;8.958;2023-08-06T16:19:52;0.97;;;0.80;;
17228;SDS011;8731;50.364;8.958;2023-08-06T16:24:16;1.37;;;1.00;;
17228;SDS011;8731;50.364;8.958;2023-08-06T16:28:39;1.97;;;1.30;;
17228;SDS011;8731;50.364;8.958;2023-08-06T16:33:01;1.57;;;1.40;;
17228;SDS011;8731;50.364;8.958;2023-08-06T16:37:24;1.00;;;0.70;;
17228;SDS011;8731;50.364;8.958;2023-08-06T16:41:48;1.97;;;0.80;;
17228;SDS011;8731;50.364;8.958;2023-08-06T16:46:11;1.60;;;0.97;;
17228;SDS011;8731;50.364;8.958;2023-08-06T16:50:33;1.70;;;0.67;;
17228;SDS011;8731;50.364;8.958;2023-08-06T16:54:58;2.00;;;1.23;;
17228;SDS011;8731;50.364;8.958;2023-08-06T16:59:22;1.30;;;0.70;;
17228;SDS011;8731;50.364;8.958;2023-08-06T17:03:44;1.87;;;0.80;;
17228;SDS011;8731;50.364;8.958;2023-08-06T17:08:08;2.20;;;1.20;;
17228;SDS011;8731;50.364;8.958;2023-08-06T17:12:34;1.27;;;0.80;;
17228;SDS011;8731;50.364;8.958;2023-08-06T17:16:58;1.47;;;0.90;;
17228;SDS011;8731;50.364;8.958;2023-08-06T17:21:20;1.03;;;0.83;;
17228;SDS011;8731;50.364;8.958;2023-08-06T17:25:43;1.77;;;1.00;;
17228;SDS011;8731;50.364;8.958;2023-08-06T17:30:06;1.00;;;0.80;;
17228;SDS011;8731;50.364;8.958;2023-08-06T17:34:31;2.50;;;0.90;;
17228;SDS011;8731;50.364;8.958;2023-08-06T17:38:53;0.90;;;0.90;;
17228;SDS011;8731;50.364;8.958;2023-08-06T17:43:15;1.57;;;0.90;;
17228;SDS011;8731;50.364;8.958;2023-08-06T17:47:38;1.40;;;0.90;;
17228;SDS011;8731;50.364;8.958;2023-08-06T17:52:03;1.33;;;0.90;;
17228;SDS011;8731;50.364;8.958;2023-08-06T17:56:26;2.97;;;0.80;;
17228;SDS011;8731;50.364;8.958;2023-08-06T18:00:49;0.80;;;0.60;;
17228;SDS011;8731;50.364;8.958;2023-08-06T18:05:11;1.53;;;0.60;;
17228;SDS011;8731;50.364;8.958;2023-08-06T18:09:36;1.00;;;0.47;;
17228;SDS011;8731;50.364;8.958;2023-08-06T18:13:58;2.47;;;0.63;;
17228;SDS011;8731;50.364;8.958;2023-08-06T18:18:21;1.10;;;0.70;;
17228;SDS011;8731;50.364;8.958;2023-08-06T18:22:43;1.13;;;1.03;;
17228;SDS011;8731;50.364;8.958;2023-08-06T18:27:07;3.23;;;0.60;;
17228;SDS011;8731;50.364;8.958;2023-08-06T18:31:29;1.10;;;0.70;;
17228;SDS011;8731;50.364;8.958;2023-08-06T18:35:52;1.30;;;0.50;;
17228;SDS011;8731;50.364;8.958;2023-08-06T18:40:16;1.73;;;0.60;;
17228;SDS011;8731;50.364;8.958;2023-08-06T18:44:40;3.77;;;0.80;;
17228;SDS011;8731;50.364;8.958;2023-08-06T18:49:02;1.23;;;0.80;;
17228;SDS011;8731;50.364;8.958;2023-08-06T18:53:25;0.87;;;0.40;;
17228;SDS011;8731;50.364;8.958;2023-08-06T18:57:47;1.50;;;0.60;;
17228;SDS011;8731;50.364;8.958;2023-08-06T19:02:11;1.70;;;0.70;;
17228;SDS011;8731;50.364;8.958;2023-08-06T19:06:34;3.00;;;0.70;;
17228;SDS011;8731;50.364;8.958;2023-08-06T19:10:56;2.87;;;0.70;;
17228;SDS011;8731;50.364;8.958;2023-08-06T19:15:18;0.57;;;0.53;;
17228;SDS011;8731;50.364;8.958;2023-08-06T19:19:44;2.83;;;1.30;;
17228;SDS011;8731;50.364;8.958;2023-08-06T19:24:07;1.83;;;0.77;;
17228;SDS011;8731;50.364;8.958;2023-08-06T19:28:29;1.10;;;0.50;;
17228;SDS011;8731;50.364;8.958;2023-08-06T19:32:54;0.80;;;0.77;;
17228;SDS011;8731;50.364;8.958;2023-08-06T19:37:18;1.10;;;0.53;;
17228;SDS011;8731;50.364;8.958;2023-08-06T19:41:43;0.73;;;0.50;;
17228;SDS011;8731;50.364;8.958;2023-08-06T19:46:05;0.60;;;0.40;;
17228;SDS011;8731;50.364;8.958;2023-08-06T19:50:28;0.83;;;0.60;;
17228;SDS011;8731;50.364;8.958;2023-08-06T19:54:52;0.60;;;0.60;;
17228;SDS011;8731;50.364;8.958;2023-08-06T19:59:15;2.93;;;0.70;;
17228;SDS011;8731;50.364;8.958;2023-08-06T20:03:40;1.13;;;0.70;;
17228;SDS011;8731;50.364;8.958;2023-08-06T20:08:04;1.70;;;0.60;;
17228;SDS011;8731;50.364;8.958;2023-08-06T20:12:28;2.07;;;0.83;;
17228;SDS011;8731;50.364;8.958;2023-08-06T20:16:50;0.67;;;0.60;;
17228;SDS011;8731;50.364;8.958;2023-08-06T20:21:13;1.43;;;0.60;;
17228;SDS011;8731;50.364;8.958;2023-08-06T20:25:36;0.80;;;0.40;;
17228;SDS011;8731;50.364;8.958;2023-08-06T20:30:01;0.40;;;0.40;;
17228;SDS011;8731;50.364;8.958;2023-08-06T20:34:23;0.60;;;0.43;;
17228;SDS011;8731;50.364;8.958;2023-08-06T20:38:46;0.60;;;0.50;;
17228;SDS011;8731;50.364;8.958;2023-08-06T20:43:08;0.70;;;0.67;;
17228;SDS011;8731;50.364;8.958;2023-08-06T20:47:33;0.80;;;0.53;;
17228;SDS011;8731;50.364;8.958;2023-08-06T20:51:55;0.50;;;0.50;;
17228;SDS011;8731;50.364;8.958;2023-08-06T20:56:18;1.37;;;0.50;;
17228;SDS011;8731;50.364;8.958;2023-08-06T21:00:41;0.60;;;0.60;;
17228;SDS011;8731;50.364;8.958;2023-08-06T21:05:06;1.17;;;0.73;;
17228;SDS011;8731;50.364;8.958;2023-08-06T21:09:29;1.20;;;0.73;;
17228;SDS011;8731;50.364;8.958;2023-08-06T21:13:52;1.00;;;0.60;;
17228;SDS011;8731;50.364;8.958;2023-08-06T21:18:14;1.47;;;0.57;;
17228;SDS011;8731;50.364;8.958;2023-08-06T21:22:38;1.73;;;0.57;;
17228;SDS011;8731;50.364;8.958;2023-08-06T21:27:02;1.03;;;0.70;;
17228;SDS011;8731;50.364;8.958;2023-08-06T21:31:25;0.80;;;0.60;;
17228;SDS011;8731;50.364;8.958;2023-08-06T21:35:49;2.13;;;0.57;;
17228;SDS011;8731;50.364;8.958;2023-08-06T21:40:14;0.83;;;0.60;;
17228;SDS011;8731;50.364;8.958;2023-08-06T21:44:36;1.53;;;0.40;;
17228;SDS011;8731;50.364;8.958;2023-08-06T21:48:58;0.83;;;0.50;;
17228;SDS011;8731;50.364;8.958;2023-08-06T21:53:21;2.43;;;0.60;;
17228;SDS011;8731;50.364;8.958;2023-08-06T21:57:45;0.40;;;0.40;;
17228;SDS011;8731;50.364;8.958;2023-08-06T22:02:09;1.00;;;0.40;;
17228;SDS011;8731;50.364;8.958;2023-08-06T22:06:32;1.63;;;0.53;;
17228;SDS011;8731;50.364;8.958;2023-08-06T22:10:55;0.53;;;0.50;;
17228;SDS011;8731;50.364;8.958;2023-08-06T22:15:20;0.80;;;0.50;;
17228;SDS011;8731;50.364;8.958;2023-08-06T22:19:42;1.23;;;0.60;;
17228;SDS011;8731;50.364;8.958;2023-08-06T22:24:05;0.60;;;0.60;;
17228;SDS011;8731;50.364;8.958;2023-08-06T22:28:29;1.43;;;0.60;;
17228;SDS011;8731;50.364;8.958;2023-08-06T22:32:52;0.77;;;0.77;;
17228;SDS011;8731;50.364;8.958;2023-08-06T22:37:15;2.57;;;0.90;;
17228;SDS011;8731;50.364;8.958;2023-08-06T22:41:37;2.30;;;0.90;;
17228;SDS011;8731;50.364;8.958;2023-08-06T22:46:00;4.83;;;0.90;;
17228;SDS011;8731;50.364;8.958;2023-08-06T22:50:24;2.53;;;1.00;;
17228;SDS011;8731;50.364;8.958;2023-08-06T22:54:46;2.20;;;1.00;;
17228;SDS011;8731;50.364;8.958;2023-08-06T22:59:09;1.17;;;0.70;;
17228;SDS011;8731;50.364;8.958;2023-08-06T23:03:32;1.67;;;0.90;;
17228;SDS011;8731;50.364;8.958;2023-08-06T23:07:56;1.13;;;0.70;;
17228;SDS011;8731;50.364;8.958;2023-08-06T23:12:18;2.57;;;0.90;;
17228;SDS011;8731;50.364;8.958;2023-08-06T23:16:41;2.30;;;0.80;;
17228;SDS011;8731;50.364;8.958;2023-08-06T23:21:03;2.47;;;0.80;;
17228;SDS011;8731;50.364;8.958;2023-08-06T23:25:27;2.43;;;1.00;;
17228;SDS011;8731;50.364;8.958;2023-08-06T23:29:49;1.70;;;0.93;;
17228;SDS011;8731;50.364;8.958;2023-08-06T23:34:11;2.37;;;1.00;;
17228;SDS011;8731;50.364;8.958;2023-08-06T23:38:34;2.93;;;1.23;;
17228;SDS011;8731;50.364;8.958;2023-08-06T23:42:58;2.50;;;1.20;;
17228;SDS011;8731;50.364;8.958;2023-08-06T23:47:20;1.97;;;1.20;;
17228;SDS011;8731;50.364;8.958;2023-08-06T23:51:43;4.23;;;1.30;;
17228;SDS011;8731;50.364;8.958;2023-08-06T23:56:06;1.60;;;1.43;;
